Terminal Aerodrome Forecast
Issued by NWS

Home | Current Version | Previous Version | Text Only | Print | Product List | Glossary On
Versions: 1 2 3 4 5 6 7 8 9 10 11 12 13
946
FTUS45 KABQ 262338
TAFLVS
TAF
KLVS 262338Z 2700/2724 23020G30KT P6SM BKN090
     FM270100 26017G25KT P6SM BKN090
     FM270500 27010KT P6SM BKN120
     FM271600 32012G20KT P6SM SCT090 SCT140
     FM272100 34015KT P6SM SCT140=

USA.gov is the U.S. government's official web portal to all federal, state and local government web resources and services.